createdAt,value
2023-02-15T00:01:20.553Z,15.07
2023-02-15T00:03:51.133Z,13.70
2023-02-15T00:06:19.988Z,15.80
2023-02-15T00:08:50.258Z,14.07
2023-02-15T00:11:40.270Z,13.63
2023-02-15T00:14:10.950Z,13.67
2023-02-15T00:16:41.529Z,16.03
2023-02-15T00:19:10.667Z,13.13
2023-02-15T00:21:39.729Z,13.33
2023-02-15T00:24:12.499Z,13.10
2023-02-15T00:26:42.187Z,16.00
2023-02-15T00:29:11.800Z,12.63
2023-02-15T00:31:41.321Z,13.37
2023-02-15T00:34:15.168Z,15.40
2023-02-15T00:36:43.633Z,14.43
2023-02-15T00:39:17.011Z,11.40
2023-02-15T00:41:45.945Z,11.77
2023-02-15T00:44:14.558Z,12.67
2023-02-15T00:46:44.571Z,12.27
2023-02-15T00:49:13.017Z,13.40
2023-02-15T00:51:41.443Z,15.23
2023-02-15T00:54:10.214Z,13.87
2023-02-15T00:56:38.585Z,11.77
2023-02-15T00:59:06.779Z,15.30
2023-02-15T01:01:34.955Z,11.73
2023-02-15T01:04:04.611Z,13.50
2023-02-15T01:06:32.753Z,12.73
2023-02-15T01:09:03.396Z,13.70
2023-02-15T01:11:31.601Z,12.87
2023-02-15T01:14:00.212Z,13.27
2023-02-15T01:16:30.482Z,12.93
2023-02-15T01:18:59.082Z,11.93
2023-02-15T01:21:28.829Z,12.80
2023-02-15T01:24:00.117Z,11.63
2023-02-15T01:26:28.511Z,13.37
2023-02-15T01:29:00.100Z,13.00
2023-02-15T01:31:28.308Z,11.83
2023-02-15T01:33:56.537Z,12.83
2023-02-15T01:36:24.608Z,13.30
2023-02-15T01:38:55.120Z,11.00
2023-02-15T01:41:24.602Z,12.77
2023-02-15T01:43:55.257Z,14.63
2023-02-15T01:46:29.544Z,14.07
2023-02-15T01:49:05.110Z,11.77
2023-02-15T01:51:38.906Z,13.97
2023-02-15T01:54:13.003Z,14.10
2023-02-15T01:56:43.069Z,11.57
2023-02-15T01:59:16.905Z,14.83
2023-02-15T02:01:47.846Z,12.97
2023-02-15T02:04:26.530Z,13.83
2023-02-15T02:06:59.834Z,13.63
2023-02-15T02:09:32.168Z,15.70
2023-02-15T02:12:03.549Z,14.33
2023-02-15T02:14:32.143Z,14.30
2023-02-15T02:17:07.480Z,15.13
2023-02-15T02:20:04.354Z,12.43
2023-02-15T02:23:11.147Z,11.47
2023-02-15T02:26:17.099Z,15.23
2023-02-15T02:29:29.799Z,15.40
2023-02-15T02:32:38.811Z,13.00
2023-02-15T02:35:16.378Z,14.13
2023-02-15T02:37:53.493Z,14.17
2023-02-15T02:40:30.605Z,14.50
2023-02-15T02:43:04.028Z,14.97
2023-02-15T02:45:41.962Z,13.70
2023-02-15T02:48:16.856Z,12.60
2023-02-15T02:50:46.297Z,12.60
2023-02-15T02:53:14.446Z,12.63
2023-02-15T02:55:48.344Z,14.50
2023-02-15T02:58:22.386Z,14.03
2023-02-15T03:00:55.433Z,13.50
2023-02-15T03:03:28.893Z,12.20
2023-02-15T03:06:02.912Z,13.07
2023-02-15T03:08:39.966Z,12.27
2023-02-15T03:11:11.080Z,13.53
2023-02-15T03:13:39.767Z,16.60
2023-02-15T03:16:30.616Z,15.27
2023-02-15T03:19:03.600Z,13.87
2023-02-15T03:21:38.176Z,16.07
2023-02-15T03:24:15.405Z,14.63
2023-02-15T03:26:47.542Z,15.07
2023-02-15T03:29:17.360Z,12.73
2023-02-15T03:31:51.727Z,12.37
2023-02-15T03:34:22.331Z,14.57
2023-02-15T03:36:58.105Z,13.70
2023-02-15T03:39:33.346Z,13.03
2023-02-15T03:42:09.739Z,13.93
2023-02-15T03:44:51.093Z,14.30
2023-02-15T03:47:26.132Z,12.17
2023-02-15T03:49:58.620Z,12.27
2023-02-15T03:52:31.669Z,11.57
2023-02-15T03:55:00.114Z,12.50
2023-02-15T03:57:47.928Z,13.73
2023-02-15T04:00:37.952Z,14.57
2023-02-15T04:03:14.592Z,13.40
2023-02-15T04:05:43.889Z,12.30
2023-02-15T04:08:14.509Z,11.67
2023-02-15T04:10:54.387Z,14.67
2023-02-15T04:13:23.389Z,14.77
2023-02-15T04:16:04.883Z,15.07
2023-02-15T04:18:55.924Z,12.43
2023-02-15T04:21:42.675Z,10.17
2023-02-15T04:24:32.515Z,11.37
2023-02-15T04:27:01.604Z,13.03
2023-02-15T04:29:30.298Z,14.93
2023-02-15T04:32:02.008Z,12.77
2023-02-15T04:34:32.647Z,13.97
2023-02-15T04:37:00.768Z,14.43
2023-02-15T04:39:30.211Z,13.40
2023-02-15T04:42:00.619Z,17.70
2023-02-15T04:44:28.699Z,12.23
2023-02-15T04:46:56.842Z,15.17
2023-02-15T04:49:24.940Z,12.13
2023-02-15T04:51:55.064Z,12.33
2023-02-15T04:54:25.656Z,14.70
2023-02-15T04:56:55.130Z,13.47
2023-02-15T04:59:25.341Z,13.37
2023-02-15T05:01:53.413Z,13.67
2023-02-15T05:04:21.570Z,15.00
2023-02-15T05:06:52.416Z,14.50
2023-02-15T05:09:20.546Z,16.23
2023-02-15T05:11:48.677Z,11.83
2023-02-15T05:14:18.178Z,14.33
2023-02-15T05:16:46.352Z,13.47
2023-02-15T05:19:16.838Z,16.37
2023-02-15T05:21:44.992Z,12.70
2023-02-15T05:24:30.801Z,13.73
2023-02-15T05:27:16.169Z,14.33
2023-02-15T05:29:45.685Z,12.63
2023-02-15T05:32:15.455Z,12.83
2023-02-15T05:34:46.018Z,12.40
2023-02-15T05:37:14.216Z,14.40
2023-02-15T05:39:44.625Z,15.37
2023-02-15T05:42:15.021Z,13.17
2023-02-15T05:44:46.692Z,15.57
2023-02-15T05:47:14.845Z,13.27
2023-02-15T05:49:42.986Z,14.97
2023-02-15T05:52:13.494Z,12.90
2023-02-15T05:54:43.927Z,13.97
2023-02-15T05:57:12.027Z,14.40
2023-02-15T05:59:40.230Z,14.30
2023-02-15T06:02:09.768Z,11.77
2023-02-15T06:04:37.900Z,14.13
2023-02-15T06:07:06.014Z,14.47
2023-02-15T06:09:36.244Z,12.67
2023-02-15T06:12:04.480Z,13.30
2023-02-15T06:14:32.685Z,14.07
2023-02-15T06:17:00.849Z,15.83
2023-02-15T06:19:30.333Z,13.77
2023-02-15T06:21:58.449Z,11.53
2023-02-15T06:24:26.708Z,15.85
2023-02-15T06:26:57.335Z,14.77
2023-02-15T06:29:25.532Z,12.93
2023-02-15T06:31:54.765Z,14.97
2023-02-15T06:34:23.814Z,13.30
2023-02-15T06:36:53.753Z,13.50
2023-02-15T06:39:24.428Z,13.50
2023-02-15T06:41:55.517Z,12.90
2023-02-15T06:44:26.703Z,16.43
2023-02-15T06:46:56.850Z,15.20
2023-02-15T06:49:24.899Z,13.27
2023-02-15T06:51:54.504Z,13.40
2023-02-15T06:54:22.680Z,12.53
2023-02-15T06:56:50.777Z,12.90
2023-02-15T06:59:21.221Z,17.63
2023-02-15T07:01:50.035Z,12.97
2023-02-15T07:04:18.312Z,14.53
2023-02-15T07:06:46.826Z,12.37
2023-02-15T07:09:19.030Z,12.40
2023-02-15T07:12:07.154Z,18.10
2023-02-15T07:14:37.594Z,12.40
2023-02-15T07:17:11.689Z,12.63
2023-02-15T07:19:42.953Z,12.80
2023-02-15T07:22:13.588Z,12.47
2023-02-15T07:24:43.112Z,12.43
2023-02-15T07:27:13.505Z,11.13
2023-02-15T07:29:41.783Z,12.10
2023-02-15T07:32:09.897Z,14.00
2023-02-15T07:34:40.256Z,13.20
2023-02-15T07:37:08.441Z,13.30
2023-02-15T07:39:38.824Z,14.20
2023-02-15T07:42:08.315Z,13.77
2023-02-15T07:44:38.700Z,13.87
2023-02-15T07:47:07.038Z,14.10
2023-02-15T07:49:35.191Z,14.70
2023-02-15T07:52:10.449Z,14.17
2023-02-15T07:54:41.227Z,14.47
2023-02-15T07:57:13.223Z,14.00
2023-02-15T07:59:41.687Z,15.13
2023-02-15T08:02:13.299Z,15.43
2023-02-15T08:04:41.532Z,13.80
2023-02-15T08:07:11.698Z,13.80
2023-02-15T08:09:40.283Z,14.77
2023-02-15T08:12:08.648Z,15.63
2023-02-15T08:14:38.263Z,16.60
2023-02-15T08:17:06.401Z,15.07
2023-02-15T08:19:36.683Z,15.67
2023-02-15T08:22:08.984Z,15.17
2023-02-15T08:24:39.893Z,16.90
2023-02-15T08:27:10.041Z,16.00
2023-02-15T08:29:40.413Z,15.63
2023-02-15T08:32:11.038Z,13.00
2023-02-15T08:34:41.694Z,19.73
2023-02-15T08:37:10.396Z,19.33
2023-02-15T08:39:40.797Z,14.87
2023-02-15T08:42:10.968Z,17.90
2023-02-15T08:44:40.480Z,15.67
2023-02-15T08:47:08.584Z,19.20
2023-02-15T08:49:36.700Z,19.53
2023-02-15T08:52:04.933Z,18.60
2023-02-15T08:54:33.078Z,17.50
2023-02-15T08:57:01.543Z,17.03
2023-02-15T08:59:29.614Z,22.07
2023-02-15T09:01:59.331Z,16.37
2023-02-15T09:04:27.468Z,19.30
2023-02-15T09:06:58.260Z,19.80
2023-02-15T09:09:28.684Z,17.53
2023-02-15T09:11:59.718Z,21.77
2023-02-15T09:14:28.803Z,18.10
2023-02-15T09:17:00.524Z,21.87
2023-02-15T09:19:28.643Z,22.50
2023-02-15T09:21:59.533Z,18.80
2023-02-15T09:24:27.779Z,23.80
2023-02-15T09:26:55.864Z,18.83
2023-02-15T09:29:24.018Z,20.97
2023-02-15T09:31:54.588Z,24.50
2023-02-15T09:34:24.714Z,23.57
2023-02-15T09:36:55.175Z,25.53
2023-02-15T09:39:25.596Z,24.07
2023-02-15T09:42:22.295Z,21.53
2023-02-15T09:45:18.765Z,19.53
2023-02-15T09:48:10.565Z,20.93
2023-02-15T09:50:49.944Z,18.93
2023-02-15T09:53:36.389Z,23.70
2023-02-15T09:56:11.771Z,24.30
2023-02-15T09:58:52.082Z,21.83
2023-02-15T10:01:30.579Z,24.63
2023-02-15T10:04:19.880Z,23.70
2023-02-15T10:07:03.422Z,24.50
2023-02-15T10:09:42.642Z,24.70
2023-02-15T10:12:30.032Z,23.57
2023-02-15T10:15:20.605Z,22.27
2023-02-15T10:18:08.931Z,26.50
2023-02-15T10:20:47.638Z,27.50
2023-02-15T10:23:43.701Z,23.83
2023-02-15T10:26:18.628Z,23.57
2023-02-15T10:28:50.696Z,25.43
2023-02-15T10:31:27.349Z,23.77
2023-02-15T10:34:18.290Z,26.70
2023-02-15T10:37:06.280Z,24.93
2023-02-15T10:39:46.053Z,24.13
2023-02-15T10:42:23.332Z,23.20
2023-02-15T10:45:08.642Z,25.60
2023-02-15T10:48:01.513Z,26.73
2023-02-15T10:50:49.587Z,22.80
2023-02-15T10:53:38.610Z,24.67
2023-02-15T10:56:20.701Z,29.73
2023-02-15T10:59:05.267Z,22.77
2023-02-15T11:01:42.761Z,22.47
2023-02-15T11:04:45.965Z,24.60
2023-02-15T11:07:18.856Z,25.23
2023-02-15T11:09:51.329Z,25.40
2023-02-15T11:12:25.279Z,28.83
2023-02-15T11:15:00.369Z,23.70
2023-02-15T11:17:32.934Z,26.00
2023-02-15T11:20:10.050Z,26.77
2023-02-15T11:22:38.336Z,25.40
2023-02-15T11:25:20.339Z,24.00
2023-02-15T11:27:53.968Z,26.53
2023-02-15T11:30:24.942Z,24.97
2023-02-15T11:32:56.572Z,23.23
2023-02-15T11:35:29.951Z,25.93
2023-02-15T11:38:05.771Z,23.70
2023-02-15T11:40:42.813Z,24.30
2023-02-15T11:43:20.431Z,24.40
2023-02-15T11:45:48.738Z,22.87
2023-02-15T11:48:18.784Z,27.67
2023-02-15T11:50:49.269Z,27.13
2023-02-15T11:53:22.134Z,28.50
2023-02-15T11:55:52.908Z,24.83
2023-02-15T11:58:32.623Z,22.77
2023-02-15T12:01:11.083Z,24.63
2023-02-15T12:03:46.826Z,23.80
2023-02-15T12:06:25.644Z,32.80
2023-02-15T12:09:07.323Z,26.37
2023-02-15T12:11:38.623Z,22.40
2023-02-15T12:14:12.683Z,31.87
2023-02-15T12:16:47.192Z,29.40
2023-02-15T12:19:32.066Z,28.00
2023-02-15T12:22:03.009Z,30.37
2023-02-15T12:24:36.634Z,28.27
2023-02-15T12:27:07.269Z,27.37
2023-02-15T12:29:44.049Z,24.00
2023-02-15T12:32:19.176Z,27.90
2023-02-15T12:34:48.514Z,24.43
2023-02-15T12:37:23.171Z,27.93
2023-02-15T12:39:56.652Z,26.87
2023-02-15T12:42:25.438Z,27.90
2023-02-15T12:45:00.899Z,29.37
2023-02-15T12:47:30.330Z,27.17
2023-02-15T12:50:17.884Z,26.53
2023-02-15T12:52:49.920Z,27.80
2023-02-15T12:55:24.681Z,29.57
2023-02-15T12:58:10.915Z,32.40
2023-02-15T13:00:40.491Z,30.40
2023-02-15T13:03:19.496Z,32.77
2023-02-15T13:05:50.004Z,31.27
2023-02-15T13:08:21.456Z,26.23
2023-02-15T13:10:56.629Z,31.73
2023-02-15T13:13:27.561Z,35.90
2023-02-15T13:16:00.809Z,27.63
2023-02-15T13:18:35.657Z,30.77
2023-02-15T13:21:13.394Z,33.03
2023-02-15T13:23:46.518Z,30.97
2023-02-15T13:26:21.340Z,28.50
2023-02-15T13:28:52.825Z,27.80
2023-02-15T13:31:34.134Z,30.87
2023-02-15T13:34:05.653Z,30.33
2023-02-15T13:36:44.313Z,30.23
2023-02-15T13:39:25.129Z,32.40
2023-02-15T13:42:00.372Z,28.47
2023-02-15T13:44:49.452Z,27.80
2023-02-15T13:47:27.787Z,28.43
2023-02-15T13:50:15.523Z,28.50
2023-02-15T13:52:53.256Z,27.90
2023-02-15T13:55:40.052Z,28.43
2023-02-15T13:58:25.439Z,29.43
2023-02-15T14:01:04.770Z,31.23
2023-02-15T14:04:03.298Z,27.67
2023-02-15T14:07:03.291Z,27.67
2023-02-15T14:09:42.642Z,27.83
2023-02-15T14:12:30.952Z,23.73
2023-02-15T14:15:16.078Z,29.93
2023-02-15T14:17:57.647Z,26.63
2023-02-15T14:20:38.389Z,27.77
2023-02-15T14:23:14.805Z,29.10
2023-02-15T14:25:49.457Z,24.20
2023-02-15T14:28:22.916Z,27.27
2023-02-15T14:30:53.680Z,28.13
2023-02-15T14:33:36.017Z,27.83
2023-02-15T14:36:09.260Z,28.93
2023-02-15T14:38:57.706Z,24.57
2023-02-15T14:41:37.113Z,26.70
2023-02-15T14:44:14.508Z,28.10
2023-02-15T14:46:50.514Z,28.60
2023-02-15T14:49:23.401Z,27.13
2023-02-15T14:52:01.484Z,25.37
2023-02-15T14:54:58.175Z,27.30
2023-02-15T14:57:28.735Z,25.47
2023-02-15T14:59:59.352Z,28.33
2023-02-15T15:02:31.620Z,23.17
2023-02-15T15:05:08.232Z,28.13
2023-02-15T15:07:46.515Z,26.07
2023-02-15T15:10:42.228Z,24.30
2023-02-15T15:13:55.453Z,23.60
2023-02-15T15:16:33.039Z,23.73
2023-02-15T15:19:02.000Z,29.57
2023-02-15T15:21:56.028Z,23.63
2023-02-15T15:24:54.436Z,25.83
2023-02-15T15:27:47.134Z,24.43
2023-02-15T15:31:01.639Z,27.27
2023-02-15T15:34:08.902Z,26.27
2023-02-15T15:37:18.622Z,27.10
2023-02-15T15:40:23.368Z,27.67
2023-02-15T15:42:56.023Z,26.30
2023-02-15T15:45:38.701Z,23.80
2023-02-15T15:48:30.744Z,27.80
2023-02-15T15:51:05.746Z,28.37
2023-02-15T15:53:43.283Z,31.03
2023-02-15T15:56:16.318Z,26.03
2023-02-15T15:58:49.239Z,30.90
2023-02-15T16:01:17.614Z,32.03
2023-02-15T16:03:53.311Z,28.83
2023-02-15T16:06:36.816Z,27.87
2023-02-15T16:09:17.657Z,25.03
2023-02-15T16:11:49.135Z,25.53
2023-02-15T16:14:23.291Z,26.40
2023-02-15T16:16:55.846Z,24.60
2023-02-15T16:19:28.555Z,25.97
2023-02-15T16:22:02.254Z,23.47
2023-02-15T16:24:58.973Z,24.37
2023-02-15T16:27:37.924Z,21.57
2023-02-15T16:30:28.486Z,25.87
2023-02-15T16:33:07.502Z,23.47
2023-02-15T16:35:40.021Z,23.43
2023-02-15T16:38:11.734Z,24.10
2023-02-15T16:40:53.471Z,23.93
2023-02-15T16:43:27.976Z,22.27
2023-02-15T16:46:06.364Z,22.17
2023-02-15T16:48:37.302Z,21.27
2023-02-15T16:51:06.074Z,24.73
2023-02-15T16:53:34.333Z,23.57
2023-02-15T16:56:07.002Z,20.13
2023-02-15T16:58:41.963Z,20.20
2023-02-15T17:01:14.912Z,23.77
2023-02-15T17:03:44.118Z,21.50
2023-02-15T17:06:23.724Z,21.47
2023-02-15T17:09:06.862Z,23.50
2023-02-15T17:11:44.576Z,21.43
2023-02-15T17:14:23.710Z,23.47
2023-02-15T17:16:58.565Z,19.73
2023-02-15T17:19:35.518Z,22.07
2023-02-15T17:22:09.699Z,22.97
2023-02-15T17:24:41.205Z,22.87
2023-02-15T17:27:17.985Z,22.57
2023-02-15T17:29:54.653Z,22.00
2023-02-15T17:32:31.954Z,22.23
2023-02-15T17:35:18.816Z,22.93
2023-02-15T17:37:52.895Z,26.53
2023-02-15T17:40:29.576Z,25.10
2023-02-15T17:43:04.730Z,24.87
2023-02-15T17:45:49.289Z,23.47
2023-02-15T17:48:23.203Z,26.00
2023-02-15T17:51:02.519Z,23.97
2023-02-15T17:53:36.002Z,22.80
2023-02-15T17:56:11.205Z,23.13
2023-02-15T17:58:42.164Z,21.90
2023-02-15T18:01:40.550Z,23.43
2023-02-15T18:04:30.226Z,24.27
2023-02-15T18:07:18.600Z,23.20
2023-02-15T18:10:10.862Z,22.23
2023-02-15T18:12:46.824Z,24.90
2023-02-15T18:15:16.244Z,22.93
2023-02-15T18:17:48.700Z,28.47
2023-02-15T18:20:24.613Z,32.70
2023-02-15T18:22:57.069Z,29.10
2023-02-15T18:25:29.997Z,32.47
2023-02-15T18:27:59.445Z,35.83
2023-02-15T18:30:32.143Z,30.67
2023-02-15T18:33:20.595Z,30.67
2023-02-15T18:35:52.483Z,30.73
2023-02-15T18:38:48.803Z,27.80
2023-02-15T18:41:22.496Z,32.63
2023-02-15T18:43:54.264Z,30.73
2023-02-15T18:46:24.046Z,34.90
2023-02-15T18:48:59.746Z,35.60
2023-02-15T18:51:41.618Z,29.47
2023-02-15T18:54:22.617Z,29.83
2023-02-15T18:56:58.583Z,33.70
2023-02-15T18:59:30.392Z,32.17
2023-02-15T19:02:01.357Z,35.40
2023-02-15T19:04:32.312Z,28.57
2023-02-15T19:07:00.475Z,26.17
2023-02-15T19:09:29.496Z,28.17
2023-02-15T19:11:58.047Z,26.80
2023-02-15T19:14:28.777Z,29.65
2023-02-15T19:17:01.477Z,26.20
2023-02-15T19:19:31.125Z,27.80
2023-02-15T19:22:00.013Z,31.53
2023-02-15T19:24:37.980Z,31.17
2023-02-15T19:27:07.807Z,33.03
2023-02-15T19:29:35.978Z,32.70
2023-02-15T19:32:06.869Z,26.77
2023-02-15T19:34:36.387Z,31.33
2023-02-15T19:37:06.749Z,28.57
2023-02-15T19:39:39.539Z,27.93
2023-02-15T19:42:14.841Z,27.23
2023-02-15T19:44:43.748Z,27.50
2023-02-15T19:47:14.398Z,26.17
2023-02-15T19:49:43.929Z,26.50
2023-02-15T19:52:18.262Z,24.37
2023-02-15T19:54:47.093Z,31.73
2023-02-15T19:57:15.258Z,28.97
2023-02-15T19:59:45.859Z,31.13
2023-02-15T20:02:15.552Z,26.80
2023-02-15T20:04:47.464Z,26.60
2023-02-15T20:07:22.249Z,26.07
2023-02-15T20:09:50.378Z,25.30
2023-02-15T20:12:25.103Z,25.30
2023-02-15T20:14:54.066Z,21.27
2023-02-15T20:17:24.460Z,24.37
2023-02-15T20:19:56.404Z,25.43
2023-02-15T20:22:27.202Z,25.33
2023-02-15T20:24:57.102Z,24.50
2023-02-15T20:27:25.237Z,25.30
2023-02-15T20:29:56.862Z,23.00
2023-02-15T20:32:25.213Z,22.57
2023-02-15T20:34:53.447Z,24.60
2023-02-15T20:37:29.461Z,23.07
2023-02-15T20:39:57.768Z,27.27
2023-02-15T20:42:25.865Z,22.87
2023-02-15T20:44:56.066Z,27.60
2023-02-15T20:47:27.323Z,27.20
2023-02-15T20:49:59.185Z,22.97
2023-02-15T20:52:29.195Z,27.57
2023-02-15T20:54:57.428Z,28.50
2023-02-15T20:57:25.509Z,30.30
2023-02-15T20:59:53.607Z,27.30
2023-02-15T21:02:23.943Z,22.43
2023-02-15T21:04:52.533Z,24.67
2023-02-15T21:07:22.742Z,23.13
2023-02-15T21:09:54.343Z,26.73
2023-02-15T21:12:23.595Z,22.77
2023-02-15T21:14:53.992Z,22.17
2023-02-15T21:17:22.129Z,26.97
2023-02-15T21:19:50.245Z,23.63
2023-02-15T21:22:21.438Z,23.27
2023-02-15T21:24:54.803Z,23.87
2023-02-15T21:27:24.371Z,20.23
2023-02-15T21:29:52.582Z,21.47
2023-02-15T21:32:23.045Z,25.63
2023-02-15T21:34:51.259Z,22.73
2023-02-15T21:37:29.346Z,20.13
2023-02-15T21:39:57.702Z,23.10
2023-02-15T21:42:47.189Z,24.17
2023-02-15T21:45:34.140Z,23.00
2023-02-15T21:48:05.176Z,23.10
2023-02-15T21:50:50.893Z,20.80
2023-02-15T21:53:23.696Z,20.80
2023-02-15T21:55:56.800Z,19.77
2023-02-15T21:58:28.967Z,21.87
2023-02-15T22:00:58.719Z,19.33
2023-02-15T22:03:31.104Z,19.27
2023-02-15T22:05:59.220Z,18.40
2023-02-15T22:08:27.678Z,18.67
2023-02-15T22:10:58.606Z,19.60
2023-02-15T22:13:32.881Z,19.33
2023-02-15T22:16:01.289Z,19.37
2023-02-15T22:18:34.271Z,21.70
2023-02-15T22:21:04.314Z,20.43
2023-02-15T22:23:35.176Z,20.33
2023-02-15T22:26:05.328Z,19.37
2023-02-15T22:28:36.687Z,19.67
2023-02-15T22:31:05.896Z,20.13
2023-02-15T22:33:36.596Z,22.57
2023-02-15T22:36:05.098Z,20.13
2023-02-15T22:38:35.719Z,27.13
2023-02-15T22:41:06.227Z,22.13
2023-02-15T22:43:40.778Z,20.43
2023-02-15T22:46:12.912Z,22.47
2023-02-15T22:48:41.321Z,21.10
2023-02-15T22:51:14.002Z,20.77
2023-02-15T22:53:42.125Z,21.43
2023-02-15T22:56:16.615Z,22.67
2023-02-15T22:58:50.355Z,20.00
2023-02-15T23:01:27.456Z,20.83
2023-02-15T23:03:59.943Z,22.13
2023-02-15T23:06:30.150Z,18.33
2023-02-15T23:09:00.682Z,22.17
2023-02-15T23:11:31.833Z,20.67
2023-02-15T23:14:03.734Z,22.57
2023-02-15T23:16:34.540Z,20.17
2023-02-15T23:19:02.693Z,22.60
2023-02-15T23:21:34.239Z,22.50
2023-02-15T23:24:16.622Z,21.20
2023-02-15T23:26:44.743Z,28.10
2023-02-15T23:29:19.070Z,28.43
2023-02-15T23:31:49.511Z,28.10
2023-02-15T23:34:21.249Z,23.10
2023-02-15T23:36:49.776Z,21.43
2023-02-15T23:39:36.793Z,24.23
2023-02-15T23:42:09.985Z,22.67
2023-02-15T23:44:43.792Z,24.30
2023-02-15T23:47:21.120Z,25.67
2023-02-15T23:49:51.496Z,24.13
2023-02-15T23:52:19.594Z,26.17
2023-02-15T23:54:47.660Z,28.53
2023-02-15T23:57:15.763Z,22.17
2023-02-15T23:59:46.170Z,22.70
